createdAt,value
2019-01-17T06:37:57.317Z,3
2019-01-17T06:43:57.686Z,7
2019-01-17T06:47:57.936Z,10
2019-01-17T06:49:28.012Z,13
2019-01-17T06:50:58.123Z,17
2019-01-17T06:51:58.196Z,20
2019-01-17T06:52:58.281Z,23
2019-01-17T06:53:58.279Z,27
2019-01-17T06:55:34.248Z,30
2019-01-17T06:56:28.470Z,33
2019-01-17T06:56:58.488Z,37
2019-01-17T06:57:28.494Z,40
2019-01-17T06:57:58.577Z,43
2019-01-17T06:58:28.552Z,47
2019-01-17T06:58:58.614Z,53
2019-01-17T06:59:28.592Z,57
2019-01-17T07:00:28.733Z,60
2019-01-17T07:00:58.719Z,63
2019-01-17T07:01:58.760Z,70
2019-01-17T07:02:28.782Z,73
2019-01-17T07:02:58.857Z,83
2019-01-17T07:03:28.837Z,93
2019-01-17T07:03:58.915Z,100
2019-01-17T07:04:28.915Z,107
2019-01-17T07:04:58.963Z,113
2019-01-17T07:05:29.015Z,123
2019-01-17T07:05:59.019Z,130
2019-01-17T07:06:29.022Z,133
2019-01-17T07:07:29.101Z,140
2019-01-17T07:07:59.197Z,147
2019-01-17T07:08:29.149Z,157
2019-01-17T07:08:59.241Z,167
2019-01-17T07:09:29.292Z,180
2019-01-17T07:09:59.319Z,190
2019-01-17T07:10:29.323Z,197
2019-01-17T07:10:59.373Z,210
2019-01-17T07:11:29.381Z,220
2019-01-17T07:11:59.386Z,240
2019-01-17T07:12:29.406Z,253
2019-01-17T07:12:59.438Z,267
2019-01-17T07:13:29.516Z,280
2019-01-17T07:13:59.505Z,297
2019-01-17T07:14:29.555Z,310
2019-01-17T07:14:59.568Z,320
2019-01-17T07:15:29.647Z,337
2019-01-17T07:15:59.627Z,353
2019-01-17T07:16:29.692Z,370
2019-01-17T07:16:59.781Z,387
2019-01-17T07:17:29.724Z,400
2019-01-17T07:18:00.147Z,413
2019-01-17T07:18:29.805Z,423
2019-01-17T07:18:59.839Z,427
2019-01-17T07:19:29.862Z,420
2019-01-17T07:19:59.870Z,413
2019-01-17T07:20:29.941Z,430
2019-01-17T07:20:59.963Z,457
2019-01-17T07:21:30.000Z,477
2019-01-17T07:21:59.994Z,493
2019-01-17T07:22:30.064Z,507
2019-01-17T07:23:00.099Z,513
2019-01-17T07:23:30.136Z,527
2019-01-17T07:24:00.323Z,543
2019-01-17T07:24:30.179Z,577
2019-01-17T07:25:00.224Z,613
2019-01-17T07:25:30.245Z,637
2019-01-17T07:26:00.932Z,650
2019-01-17T07:26:30.283Z,673
2019-01-17T07:27:01.080Z,697
2019-01-17T07:27:30.366Z,713
2019-01-17T07:28:30.426Z,710
2019-01-17T07:29:01.939Z,727
2019-01-17T07:29:30.484Z,747
2019-01-17T07:30:00.914Z,780
2019-01-17T07:30:30.498Z,830
2019-01-17T07:31:01.002Z,877
2019-01-17T07:31:30.604Z,923
2019-01-17T07:32:00.994Z,970
2019-01-17T07:32:30.657Z,1003
2019-01-17T07:33:00.956Z,1027
2019-01-17T07:33:30.719Z,1053
2019-01-17T07:34:00.948Z,1073
2019-01-17T07:34:30.832Z,1103
2019-01-17T07:35:00.820Z,1113
2019-01-17T07:35:30.850Z,1117
2019-01-17T07:36:00.861Z,1130
2019-01-17T07:36:30.905Z,1137
2019-01-17T07:37:00.951Z,1147
2019-01-17T07:37:31.023Z,1157
2019-01-17T07:38:01.002Z,1187
2019-01-17T07:38:31.045Z,1230
2019-01-17T07:39:01.037Z,1217
2019-01-17T07:39:31.133Z,1167
2019-01-17T07:40:01.114Z,1180
2019-01-17T07:40:31.143Z,1270
2019-01-17T07:41:01.155Z,1333
2019-01-17T07:41:31.220Z,1353
2019-01-17T07:42:01.220Z,1373
2019-01-17T07:42:31.311Z,1427
2019-01-17T07:43:01.302Z,1473
2019-01-17T07:43:31.356Z,1497
2019-01-17T07:44:01.726Z,1530
2019-01-17T07:44:31.416Z,1587
2019-01-17T07:45:01.403Z,1637
2019-01-17T07:45:31.454Z,1663
2019-01-17T07:46:02.291Z,1687
2019-01-17T07:46:31.509Z,1703
2019-01-17T07:47:01.558Z,1750
2019-01-17T07:47:31.548Z,1820
2019-01-17T07:48:01.616Z,1873
2019-01-17T07:48:31.625Z,1903
2019-01-17T07:49:01.714Z,1920
2019-01-17T07:49:31.737Z,1943
2019-01-17T07:50:01.810Z,1983
2019-01-17T07:50:31.733Z,2047
2019-01-17T07:51:01.824Z,2107
2019-01-17T07:51:31.805Z,2163
2019-01-17T07:52:01.859Z,2200
2019-01-17T07:52:31.853Z,2240
2019-01-17T07:53:01.914Z,2197
2019-01-17T07:53:31.912Z,2213
2019-01-17T07:54:31.980Z,2233
2019-01-17T07:55:02.030Z,2367
2019-01-17T07:55:32.071Z,2517
2019-01-17T07:56:02.092Z,2597
2019-01-17T07:56:32.121Z,2667
2019-01-17T07:57:02.189Z,2770
2019-01-17T07:57:32.207Z,2960
2019-01-17T07:58:02.270Z,3137
2019-01-17T07:58:33.125Z,3227
2019-01-17T07:59:02.284Z,3270
2019-01-17T07:59:32.306Z,3287
2019-01-17T08:00:02.334Z,3257
2019-01-17T08:00:32.383Z,3217
2019-01-17T08:01:02.389Z,3157
2019-01-17T08:02:02.486Z,3200
2019-01-17T08:02:32.512Z,3317
2019-01-17T08:03:02.569Z,3453
2019-01-17T08:03:32.570Z,3503
2019-01-17T08:04:02.571Z,3463
2019-01-17T08:04:32.662Z,3330
2019-01-17T08:05:02.650Z,3163
2019-01-17T08:05:32.658Z,3160
2019-01-17T08:06:02.749Z,3243
2019-01-17T08:06:32.782Z,3280
2019-01-17T08:07:02.804Z,3157
2019-01-17T08:07:32.841Z,3193
2019-01-17T08:08:02.876Z,3343
2019-01-17T08:08:32.878Z,3407
2019-01-17T08:09:02.942Z,3307
2019-01-17T08:09:32.893Z,3240
2019-01-17T08:10:02.968Z,3313
2019-01-17T08:10:32.962Z,3300
2019-01-17T08:11:03.053Z,3273
2019-01-17T08:11:33.129Z,3217
2019-01-17T08:12:05.070Z,3153
2019-01-17T08:12:33.155Z,3190
2019-01-17T08:13:03.191Z,3397
2019-01-17T08:13:33.173Z,3833
2019-01-17T08:14:03.224Z,4180
2019-01-17T08:14:33.296Z,4230
2019-01-17T08:15:03.298Z,4343
2019-01-17T08:15:33.324Z,4670
2019-01-17T08:16:03.371Z,5013
2019-01-17T08:16:33.407Z,5200
2019-01-17T08:17:03.405Z,5337
2019-01-17T08:17:33.453Z,5363
2019-01-17T08:18:03.484Z,5050
2019-01-17T08:18:33.543Z,4887
2019-01-17T08:19:03.514Z,4930
2019-01-17T08:19:33.573Z,4860
2019-01-17T08:20:03.604Z,4817
2019-01-17T08:20:33.633Z,4910
2019-01-17T08:21:03.651Z,4977
2019-01-17T08:21:33.638Z,4940
2019-01-17T08:22:03.715Z,4877
2019-01-17T08:22:33.763Z,4857
2019-01-17T08:23:03.781Z,4860
2019-01-17T08:23:34.622Z,4927
2019-01-17T08:24:03.837Z,5013
2019-01-17T08:24:33.861Z,5120
2019-01-17T08:25:03.901Z,5280
2019-01-17T08:25:33.924Z,5340
2019-01-17T08:26:03.956Z,5373
2019-01-17T08:26:33.982Z,5487
2019-01-17T08:27:04.046Z,5570
2019-01-17T08:27:34.057Z,5687
2019-01-17T08:28:04.103Z,5853
2019-01-17T08:28:34.116Z,6073
2019-01-17T08:29:04.149Z,6360
2019-01-17T08:29:34.170Z,6753
2019-01-17T08:30:04.219Z,7290
2019-01-17T08:30:34.272Z,7740
2019-01-17T08:31:04.278Z,8007
2019-01-17T08:31:34.301Z,8280
2019-01-17T08:32:04.329Z,8537
2019-01-17T08:32:34.354Z,8940
2019-01-17T08:33:04.466Z,10667
2019-01-17T08:33:34.416Z,9660
2019-01-17T08:34:04.432Z,10013
2019-01-17T08:34:34.527Z,9973
2019-01-17T08:35:04.532Z,9833
2019-01-17T08:35:34.524Z,10180
2019-01-17T08:36:04.560Z,11290
2019-01-17T08:36:34.572Z,12070
2019-01-17T08:37:04.608Z,10980
2019-01-17T08:37:34.718Z,11353
2019-01-17T08:38:04.743Z,11567
2019-01-17T08:38:34.696Z,10693
2019-01-17T08:39:04.751Z,10130
2019-01-17T08:39:34.783Z,9783
2019-01-17T08:40:04.794Z,10430
2019-01-17T08:40:34.837Z,10140
2019-01-17T08:41:04.866Z,10160
2019-01-17T08:41:34.872Z,9837
2019-01-17T08:42:04.907Z,9907
2019-01-17T08:42:34.947Z,9810
2019-01-17T08:43:05.059Z,10713
2019-01-17T08:43:34.985Z,8707
2019-01-17T08:44:05.029Z,8300
2019-01-17T08:44:35.095Z,10797
2019-01-17T08:45:05.129Z,8187
2019-01-17T08:45:35.155Z,8213
2019-01-17T08:46:05.201Z,8343
2019-01-17T08:46:35.219Z,8547
2019-01-17T08:47:05.236Z,8667
2019-01-17T08:47:35.282Z,8683
2019-01-17T08:48:05.333Z,8660
2019-01-17T08:48:35.342Z,8443
2019-01-17T08:49:05.383Z,8147
2019-01-17T08:49:35.402Z,8010
2019-01-17T08:50:05.448Z,7853
2019-01-17T08:50:35.476Z,7620
2019-01-17T08:51:05.496Z,7223
2019-01-17T08:51:35.510Z,6890
2019-01-17T08:52:05.574Z,6847
2019-01-17T08:52:35.585Z,6827
2019-01-17T08:54:05.682Z,6780
2019-01-17T08:54:35.663Z,6593
2019-01-17T08:55:05.740Z,6490
2019-01-17T08:55:35.777Z,6127
2019-01-17T08:56:05.805Z,5760
2019-01-17T08:56:35.834Z,5313
2019-01-17T08:57:05.865Z,5353
2019-01-17T08:57:35.898Z,5420
2019-01-17T08:58:05.925Z,5263
2019-01-17T08:58:35.961Z,4963
2019-01-17T08:59:06.005Z,4940
2019-01-17T08:59:36.011Z,5313
2019-01-17T09:00:06.050Z,5240
2019-01-17T09:00:36.085Z,5307
2019-01-17T09:01:06.124Z,5370
2019-01-17T09:01:36.439Z,5453
2019-01-17T09:02:06.135Z,5657
2019-01-17T09:02:36.175Z,5273
2019-01-17T09:03:06.236Z,4877
2019-01-17T09:03:36.279Z,4580
2019-01-17T09:04:06.264Z,4233
2019-01-17T09:04:36.284Z,3820
2019-01-17T09:05:06.358Z,3577
2019-01-17T09:05:36.375Z,3487
2019-01-17T09:06:06.424Z,3437
2019-01-17T09:06:36.406Z,3553
2019-01-17T09:07:06.489Z,3610
2019-01-17T09:07:36.463Z,3557
2019-01-17T09:08:06.547Z,3430
2019-01-17T09:08:36.542Z,3380
2019-01-17T09:09:06.602Z,3393
2019-01-17T09:09:36.804Z,3480
2019-01-17T09:10:06.670Z,3607
2019-01-17T09:10:36.959Z,3633
2019-01-17T09:11:06.731Z,3607
2019-01-17T09:11:36.717Z,3570
2019-01-17T09:12:06.872Z,3560
2019-01-17T09:12:36.774Z,3533
2019-01-17T09:13:06.823Z,3463
2019-01-17T09:13:37.000Z,3437
2019-01-17T09:14:06.925Z,3493
2019-01-17T09:14:37.001Z,3550
2019-01-17T09:15:06.979Z,3663
2019-01-17T09:15:37.216Z,3787
2019-01-17T09:16:07.041Z,3690
2019-01-17T09:16:37.046Z,3640
2019-01-17T09:17:07.098Z,3787
2019-01-17T09:17:37.121Z,3897
2019-01-17T09:18:07.161Z,3720
2019-01-17T09:18:37.147Z,3637
2019-01-17T09:19:07.230Z,3627
2019-01-17T09:19:37.262Z,3643
2019-01-17T09:20:07.280Z,3647
2019-01-17T09:20:37.304Z,3723
2019-01-17T09:21:07.358Z,3950
2019-01-17T09:21:37.402Z,4357
2019-01-17T09:22:07.429Z,5027
2019-01-17T09:22:37.440Z,5960
2019-01-17T09:23:07.473Z,7293
2019-01-17T09:23:37.537Z,8753
2019-01-17T09:24:07.518Z,9320
2019-01-17T09:24:37.540Z,10967
2019-01-17T09:25:07.558Z,11580
2019-01-17T09:25:37.564Z,13913
2019-01-17T09:26:07.853Z,15317
2019-01-17T09:26:37.642Z,15960
2019-01-17T09:27:07.679Z,20903
2019-01-17T09:27:37.693Z,22750
2019-01-17T09:28:07.751Z,22887
2019-01-17T09:28:37.760Z,21903
2019-01-17T09:29:07.872Z,20267
2019-01-17T09:29:37.810Z,17230
2019-01-17T09:30:07.873Z,16037
2019-01-17T09:30:37.882Z,14717
2019-01-17T09:31:07.972Z,14707
2019-01-17T09:31:37.957Z,15717
2019-01-17T09:32:08.005Z,16187
2019-01-17T09:32:38.002Z,15980
2019-01-17T09:33:08.089Z,17063
2019-01-17T09:33:38.110Z,19570
2019-01-17T09:34:08.103Z,21250
2019-01-17T09:34:38.162Z,19377
2019-01-17T09:35:08.170Z,17807
2019-01-17T09:35:38.235Z,15467
2019-01-17T09:36:08.268Z,12807
2019-01-17T09:36:38.285Z,11097
2019-01-17T09:37:08.325Z,10793
2019-01-17T09:37:38.305Z,13867
2019-01-17T09:38:08.387Z,13527
2019-01-17T09:38:38.391Z,15303
2019-01-17T09:39:08.458Z,15883
2019-01-17T09:39:38.434Z,16597
2019-01-17T09:40:08.516Z,16253
2019-01-17T09:40:38.583Z,15397
2019-01-17T09:41:08.539Z,14240
2019-01-17T09:41:38.602Z,12870
2019-01-17T09:42:08.626Z,12837
2019-01-17T09:42:38.687Z,14300
2019-01-17T09:43:08.698Z,14740
2019-01-17T09:43:38.735Z,15547
2019-01-17T09:44:08.766Z,16487
2019-01-17T09:44:38.756Z,16150
2019-01-17T09:45:08.823Z,15293
2019-01-17T09:45:38.911Z,13830
2019-01-17T09:46:08.888Z,14350
2019-01-17T09:46:38.903Z,13230
2019-01-17T09:47:08.905Z,13440
2019-01-17T09:47:38.969Z,10807
2019-01-17T09:48:09.009Z,11823
2019-01-17T09:48:39.028Z,15913
2019-01-17T09:49:09.070Z,13537
2019-01-17T09:49:39.042Z,14743
2019-01-17T09:50:09.127Z,15040
2019-01-17T09:50:39.178Z,14570
2019-01-17T09:51:09.187Z,14110
2019-01-17T09:51:39.179Z,13433
2019-01-17T09:52:09.258Z,13240
2019-01-17T09:52:39.234Z,12717
2019-01-17T09:53:09.315Z,12943
2019-01-17T09:53:39.298Z,14853
2019-01-17T09:54:09.355Z,14150
2019-01-17T09:54:39.379Z,15557
2019-01-17T09:55:09.401Z,15777
2019-01-17T09:55:39.463Z,15660
2019-01-17T09:56:14.788Z,14683
2019-01-17T09:56:39.528Z,13127
2019-01-17T09:57:09.590Z,13403
2019-01-17T09:57:39.546Z,13530
2019-01-17T09:58:09.613Z,15163
2019-01-17T09:58:39.694Z,16987
2019-01-17T09:59:09.646Z,17900
2019-01-17T09:59:39.738Z,18000
2019-01-17T10:00:09.753Z,18160
2019-01-17T10:00:39.793Z,17480
2019-01-17T10:01:09.798Z,17217
2019-01-17T10:01:39.850Z,16983
2019-01-17T10:02:09.861Z,16250
2019-01-17T10:02:39.847Z,16220
2019-01-17T10:03:09.888Z,15423
2019-01-17T10:03:39.974Z,15327
2019-01-17T10:04:09.987Z,16367
2019-01-17T10:04:40.034Z,16280
2019-01-17T10:05:10.039Z,15777
2019-01-17T10:05:40.065Z,16727
2019-01-17T10:06:10.111Z,15687
2019-01-17T10:06:40.121Z,14130
2019-01-17T10:07:10.175Z,13673
2019-01-17T10:07:40.183Z,16470
2019-01-17T10:08:10.239Z,15463
2019-01-17T10:08:40.273Z,16007
2019-01-17T10:09:10.294Z,13610
2019-01-17T10:09:40.313Z,13680
2019-01-17T10:10:10.383Z,13543
2019-01-17T10:10:40.340Z,13747
2019-01-17T10:11:10.442Z,17160
2019-01-17T10:11:40.400Z,18160
2019-01-17T10:12:10.465Z,18570
2019-01-17T10:12:40.466Z,18890
2019-01-17T10:13:10.558Z,19000
2019-01-17T10:13:40.590Z,19340
2019-01-17T10:14:10.634Z,19593
2019-01-17T10:14:40.587Z,19277
2019-01-17T10:15:10.639Z,19897
2019-01-17T10:15:40.655Z,20400
2019-01-17T10:16:10.722Z,20443
2019-01-17T10:16:40.801Z,20543
2019-01-17T10:17:10.791Z,20560
2019-01-17T10:17:40.775Z,20783
2019-01-17T10:18:10.926Z,21627
2019-01-17T10:18:40.841Z,22320
2019-01-17T10:19:10.874Z,22530
2019-01-17T10:19:40.915Z,23320
2019-01-17T10:20:10.938Z,25173
2019-01-17T10:20:40.980Z,26270
2019-01-17T10:21:10.999Z,25737
2019-01-17T10:21:41.029Z,24750
2019-01-17T10:22:11.099Z,23763
2019-01-17T10:22:41.116Z,23713
2019-01-17T10:23:11.121Z,23650
2019-01-17T10:23:41.183Z,23840
2019-01-17T10:24:11.189Z,23523
2019-01-17T10:24:41.241Z,21113
2019-01-17T10:25:11.241Z,21407
2019-01-17T10:25:41.305Z,21517
2019-01-17T10:26:11.342Z,22007
2019-01-17T10:26:41.354Z,22620
2019-01-17T10:27:11.429Z,22323
2019-01-17T10:27:41.387Z,24323
2019-01-17T10:28:11.466Z,25783
2019-01-17T10:28:41.545Z,28173
2019-01-17T10:29:11.537Z,21800
2019-01-17T10:29:42.469Z,26260
2019-01-17T10:30:11.589Z,21257
2019-01-17T10:30:41.595Z,19650
2019-01-17T10:31:11.654Z,25187
2019-01-17T10:31:41.685Z,26103
2019-01-17T10:32:11.691Z,24260
2019-01-17T10:32:41.696Z,27000
2019-01-17T10:33:11.773Z,27047
2019-01-17T10:33:41.809Z,27197
2019-01-17T10:34:11.833Z,18130
2019-01-17T10:34:41.816Z,26510
2019-01-17T10:35:11.894Z,18263
2019-01-17T10:35:41.975Z,28157
2019-01-17T10:36:11.957Z,25223
2019-01-17T10:36:41.982Z,13347
2019-01-17T10:37:12.019Z,13743
2019-01-17T10:37:42.006Z,26033
2019-01-17T10:38:12.080Z,26730
2019-01-17T10:38:42.145Z,15923
2019-01-17T10:39:12.186Z,18480
2019-01-17T10:39:42.163Z,27060
2019-01-17T10:40:12.205Z,29317
2019-01-17T10:40:42.227Z,30077
2019-01-17T10:41:12.265Z,27980
2019-01-17T10:41:42.303Z,23560
2019-01-17T10:42:12.293Z,22337
2019-01-17T10:42:42.365Z,22833
2019-01-17T10:43:12.387Z,22243
2019-01-17T10:43:42.537Z,20873
2019-01-17T10:44:12.445Z,17437
2019-01-17T10:44:42.468Z,11637
2019-01-17T10:45:12.510Z,8933
2019-01-17T10:45:42.527Z,8727
2019-01-17T10:46:12.573Z,9310
2019-01-17T10:46:42.602Z,8247
2019-01-17T10:47:12.639Z,7943
2019-01-17T10:47:42.655Z,7977
2019-01-17T10:48:12.678Z,8093
2019-01-17T10:48:42.763Z,8373
2019-01-17T10:49:12.718Z,8040
2019-01-17T10:49:42.774Z,8423
2019-01-17T10:50:12.788Z,8973
2019-01-17T10:50:42.833Z,8810
2019-01-17T10:51:12.881Z,9063
2019-01-17T10:51:42.896Z,9927
2019-01-17T10:52:12.909Z,10773
2019-01-17T10:52:42.985Z,11107
2019-01-17T10:53:13.013Z,11400
2019-01-17T10:53:43.075Z,12317
2019-01-17T10:54:13.069Z,11027
2019-01-17T10:54:43.086Z,10743
2019-01-17T10:55:13.126Z,11360
2019-01-17T10:55:43.163Z,12060
2019-01-17T10:56:13.193Z,11903
2019-01-17T10:56:43.198Z,11217
2019-01-17T10:57:13.613Z,10853
2019-01-17T10:57:43.265Z,11470
2019-01-17T10:58:13.310Z,12863
2019-01-17T10:58:43.376Z,13530
2019-01-17T10:59:13.358Z,12693
2019-01-17T10:59:43.388Z,12877
2019-01-17T11:00:13.431Z,13477
2019-01-17T11:00:43.461Z,14267
2019-01-17T11:01:13.503Z,15333
2019-01-17T11:01:43.473Z,15753
2019-01-17T11:02:13.725Z,16497
2019-01-17T11:02:43.547Z,18633
2019-01-17T11:03:13.701Z,19230
2019-01-17T11:03:43.645Z,17077
2019-01-17T11:04:13.660Z,13307
2019-01-17T11:04:43.688Z,11597
2019-01-17T11:05:13.734Z,11257
2019-01-17T11:05:43.738Z,11747
2019-01-17T11:06:13.778Z,11230
2019-01-17T11:06:43.788Z,10580
2019-01-17T11:07:13.893Z,11450
2019-01-17T11:07:43.852Z,12643
2019-01-17T11:08:13.901Z,13400
2019-01-17T11:08:43.939Z,13587
2019-01-17T11:09:13.952Z,14017
2019-01-17T11:09:43.963Z,14453
2019-01-17T11:10:14.118Z,14017
2019-01-17T11:10:44.034Z,12307
2019-01-17T11:11:14.131Z,9660
2019-01-17T11:11:44.167Z,8470
2019-01-17T11:12:14.166Z,8023
2019-01-17T11:12:44.222Z,7623
2019-01-17T11:13:14.203Z,7803
2019-01-17T11:13:44.272Z,7703
2019-01-17T11:14:14.324Z,7707
2019-01-17T11:14:44.314Z,7560
2019-01-17T11:15:14.379Z,7700
2019-01-17T11:15:44.589Z,8110
2019-01-17T11:16:14.427Z,8393
2019-01-17T11:16:44.463Z,8673
2019-01-17T11:17:14.486Z,9143
2019-01-17T11:17:44.530Z,9610
2019-01-17T11:18:14.543Z,10113
2019-01-17T11:18:44.605Z,10367
2019-01-17T11:19:14.598Z,10873
2019-01-17T11:19:44.585Z,11003
2019-01-17T11:20:14.670Z,11607
2019-01-17T11:20:44.686Z,11997
2019-01-17T11:21:14.736Z,12287
2019-01-17T11:21:44.774Z,12730
2019-01-17T11:22:14.790Z,13080
2019-01-17T11:22:44.824Z,13520
2019-01-17T11:23:14.813Z,13840
2019-01-17T11:23:44.905Z,13973
2019-01-17T11:24:14.909Z,14123
2019-01-17T11:24:44.962Z,14070
2019-01-17T11:25:14.968Z,13970
2019-01-17T11:25:44.953Z,14007
2019-01-17T11:26:15.022Z,13790
2019-01-17T11:26:45.056Z,13723
2019-01-17T11:27:15.103Z,13660
2019-01-17T11:27:45.176Z,13507
2019-01-17T11:28:15.162Z,12817
2019-01-17T11:28:45.247Z,12213
2019-01-17T11:29:15.225Z,11910
2019-01-17T11:29:45.202Z,11723
2019-01-17T11:30:15.276Z,11003
2019-01-17T11:30:45.313Z,10987
2019-01-17T11:31:15.336Z,11187
2019-01-17T11:31:45.330Z,11477
2019-01-17T11:32:15.407Z,11373
2019-01-17T11:32:45.428Z,11427
2019-01-17T11:33:15.475Z,11740
2019-01-17T11:33:45.513Z,11710
2019-01-17T11:34:15.527Z,12173
2019-01-17T11:34:45.562Z,12280
2019-01-17T11:35:15.583Z,12543
2019-01-17T11:35:45.568Z,12693
2019-01-17T11:36:15.619Z,12747
2019-01-17T11:36:45.659Z,13060
2019-01-17T11:37:15.682Z,13570
2019-01-17T11:37:45.758Z,13927
2019-01-17T11:38:15.784Z,14457
2019-01-17T11:38:45.871Z,14667
2019-01-17T11:39:15.840Z,14397
2019-01-17T11:39:45.852Z,14027
2019-01-17T11:40:15.901Z,13793
2019-01-17T11:40:45.915Z,13640
2019-01-17T11:41:15.963Z,13593
2019-01-17T11:41:45.964Z,13543
2019-01-17T11:42:16.030Z,13567
2019-01-17T11:42:45.996Z,13663
2019-01-17T11:43:16.076Z,13770
2019-01-17T11:43:46.111Z,13803
2019-01-17T11:44:16.139Z,13750
2019-01-17T11:44:46.121Z,13547
2019-01-17T11:45:16.206Z,13337
2019-01-17T11:45:46.233Z,13297
2019-01-17T11:46:16.324Z,13133
2019-01-17T11:46:46.467Z,13253
2019-01-17T11:47:16.335Z,13420
2019-01-17T11:47:46.353Z,13483
2019-01-17T11:48:16.389Z,13507
2019-01-17T11:48:46.453Z,13413
2019-01-17T11:49:16.527Z,13247
2019-01-17T11:49:46.483Z,13477
2019-01-17T11:50:16.545Z,13810
2019-01-17T11:50:46.511Z,14147
2019-01-17T11:51:16.552Z,14757
2019-01-17T11:51:46.598Z,15427
2019-01-17T11:52:16.600Z,16060
2019-01-17T11:52:46.631Z,16577
2019-01-17T11:53:16.703Z,16937
2019-01-17T11:53:46.690Z,17200
2019-01-17T11:54:16.748Z,17417
2019-01-17T11:54:46.734Z,17593
2019-01-17T11:55:16.780Z,17693
2019-01-17T11:55:46.800Z,17757
2019-01-17T11:56:16.871Z,17720
2019-01-17T11:56:46.867Z,17530
2019-01-17T11:57:16.927Z,17307
2019-01-17T11:57:46.916Z,17067
2019-01-17T11:58:16.961Z,16773
2019-01-17T11:58:47.035Z,16417
2019-01-17T11:59:17.027Z,16057
2019-01-17T11:59:47.064Z,15663
2019-01-17T12:00:17.134Z,15297
2019-01-17T12:00:47.150Z,14983
2019-01-17T12:01:17.309Z,14710
2019-01-17T12:01:47.242Z,14433
2019-01-17T12:02:17.257Z,14163
2019-01-17T12:02:47.280Z,13947
2019-01-17T12:03:17.291Z,13653
2019-01-17T12:03:47.414Z,13413
2019-01-17T12:04:17.366Z,13210
2019-01-17T12:04:47.373Z,13037
2019-01-17T12:05:17.444Z,12937
2019-01-17T12:05:47.461Z,12880
2019-01-17T12:06:17.505Z,12777
2019-01-17T12:06:47.521Z,12623
2019-01-17T12:07:17.556Z,12433
2019-01-17T12:07:47.618Z,12320
2019-01-17T12:08:17.635Z,12353
2019-01-17T12:08:47.670Z,12493
2019-01-17T12:09:17.677Z,12693
2019-01-17T12:09:47.712Z,12933
2019-01-17T12:10:17.741Z,13093
2019-01-17T12:10:47.974Z,13210
2019-01-17T12:11:17.798Z,13340
2019-01-17T12:11:47.832Z,13510
2019-01-17T12:12:17.869Z,13700
2019-01-17T12:12:47.884Z,13807
2019-01-17T12:13:17.886Z,13820
2019-01-17T12:13:48.011Z,13727
2019-01-17T12:14:17.999Z,13597
2019-01-17T12:14:48.026Z,13563
2019-01-17T12:15:18.048Z,13633
2019-01-17T12:15:48.031Z,13767
2019-01-17T12:16:18.119Z,13890
2019-01-17T12:16:48.103Z,13963
2019-01-17T12:17:48.209Z,13947
2019-01-17T12:18:18.233Z,13937
2019-01-17T12:18:48.279Z,13967
2019-01-17T12:19:18.319Z,14040
2019-01-17T12:19:48.266Z,14190
2019-01-17T12:20:18.368Z,14377
2019-01-17T12:20:48.373Z,14587
2019-01-17T12:21:18.416Z,14770
2019-01-17T12:21:48.443Z,14890
2019-01-17T12:22:18.482Z,14947
2019-01-17T12:22:48.516Z,14950
2019-01-17T12:23:18.560Z,14957
2019-01-17T12:23:48.576Z,15000
2019-01-17T12:24:18.605Z,15047
2019-01-17T12:24:48.649Z,15060
2019-01-17T12:25:18.663Z,15027
2019-01-17T12:25:48.688Z,14927
2019-01-17T12:26:18.834Z,14767
2019-01-17T12:26:48.760Z,14563
2019-01-17T12:27:18.788Z,14370
2019-01-17T12:27:48.822Z,14183
2019-01-17T12:28:18.847Z,14033
2019-01-17T12:28:48.934Z,13900
2019-01-17T12:29:18.918Z,13810
2019-01-17T12:29:48.918Z,13753
2019-01-17T12:30:18.973Z,13733
2019-01-17T12:30:49.018Z,13770
2019-01-17T12:31:19.034Z,13833
2019-01-17T12:31:49.067Z,13930
2019-01-17T12:32:19.091Z,14010
2019-01-17T12:32:49.151Z,14070
2019-01-17T12:33:19.168Z,14057
2019-01-17T12:33:49.199Z,13970
2019-01-17T12:34:19.224Z,13830
2019-01-17T12:34:49.226Z,13667
2019-01-17T12:35:19.305Z,13453
2019-01-17T12:35:49.330Z,13277
2019-01-17T12:36:19.319Z,13117
2019-01-17T12:36:49.383Z,12997
2019-01-17T12:37:19.401Z,12870
2019-01-17T12:37:49.430Z,12760
2019-01-17T12:38:19.473Z,12667
2019-01-17T12:38:49.548Z,12590
2019-01-17T12:39:19.538Z,12567
2019-01-17T12:39:49.505Z,12590
2019-01-17T12:40:19.693Z,12677
2019-01-17T12:40:49.575Z,12813
2019-01-17T12:41:19.635Z,12990
2019-01-17T12:41:49.657Z,13173
2019-01-17T12:42:19.685Z,13360
2019-01-17T12:42:49.725Z,13507
2019-01-17T12:43:19.731Z,13643
2019-01-17T12:43:49.811Z,13810
2019-01-17T12:44:20.607Z,14003
2019-01-17T12:44:49.811Z,14210
2019-01-17T12:45:20.377Z,14423
2019-01-17T12:45:50.585Z,14603
2019-01-17T12:46:19.917Z,14770
2019-01-17T12:46:49.978Z,14893
2019-01-17T12:47:19.982Z,14950
2019-01-17T12:47:49.997Z,14920
2019-01-17T12:48:20.049Z,14787
2019-01-17T12:48:50.126Z,14567
2019-01-17T12:49:20.157Z,14333
2019-01-17T12:49:50.115Z,14107
2019-01-17T12:50:20.204Z,13900
2019-01-17T12:50:50.212Z,13760
2019-01-17T12:51:20.313Z,13757
2019-01-17T12:51:50.256Z,13920
2019-01-17T12:52:20.295Z,14223
2019-01-17T12:52:50.359Z,14573
2019-01-17T12:53:20.357Z,14957
2019-01-17T12:53:50.448Z,15297
2019-01-17T12:54:20.429Z,15617
2019-01-17T12:54:50.431Z,15913
2019-01-17T12:55:20.474Z,16200
2019-01-17T12:55:50.521Z,16490
2019-01-17T12:56:20.579Z,16727
2019-01-17T12:56:53.953Z,16880
2019-01-17T12:57:20.628Z,16963
2019-01-17T12:57:50.677Z,16997
2019-01-17T12:58:20.654Z,16993
2019-01-17T12:58:50.735Z,17017
2019-01-17T12:59:20.722Z,17010
2019-01-17T12:59:50.770Z,16937
2019-01-17T13:00:20.823Z,16840
2019-01-17T13:00:50.797Z,16753
2019-01-17T13:01:20.856Z,16683
2019-01-17T13:01:50.861Z,16737
2019-01-17T13:02:20.961Z,16827
2019-01-17T13:02:50.975Z,16780
2019-01-17T13:03:21.006Z,16537
2019-01-17T13:03:51.035Z,16137
2019-01-17T13:04:21.115Z,15577
2019-01-17T13:04:51.128Z,14873
2019-01-17T13:05:21.184Z,14120
2019-01-17T13:05:51.184Z,13377
2019-01-17T13:06:21.177Z,12750
2019-01-17T13:06:51.298Z,12303
2019-01-17T13:07:21.257Z,11930
2019-01-17T13:07:51.240Z,11520
2019-01-17T13:08:21.309Z,11123
2019-01-17T13:08:51.342Z,10810
2019-01-17T13:09:21.336Z,10570
2019-01-17T13:09:51.423Z,10420
2019-01-17T13:10:21.395Z,10327
2019-01-17T13:10:51.437Z,10223
2019-01-17T13:11:21.500Z,10030
2019-01-17T13:11:51.518Z,9813
2019-01-17T13:12:21.554Z,9650
2019-01-17T13:13:21.614Z,9760
2019-01-17T13:13:51.702Z,10043
2019-01-17T13:14:21.695Z,10373
2019-01-17T13:14:51.681Z,10577
2019-01-17T13:15:21.749Z,10640
2019-01-17T13:15:51.809Z,10517
2019-01-17T13:16:21.761Z,10273
2019-01-17T13:16:51.872Z,10017
2019-01-17T13:17:21.853Z,9870
2019-01-17T13:17:51.935Z,9853
2019-01-17T13:18:21.924Z,9980
2019-01-17T13:18:52.000Z,10177
2019-01-17T13:19:21.991Z,10167
2019-01-17T13:19:51.999Z,9777
2019-01-17T13:20:22.015Z,9180
2019-01-17T13:20:52.113Z,8550
2019-01-17T13:21:22.105Z,7957
2019-01-17T13:21:52.171Z,7463
2019-01-17T13:22:22.206Z,7040
2019-01-17T13:22:52.165Z,6773
2019-01-17T13:23:22.232Z,6677
2019-01-17T13:23:52.415Z,6720
2019-01-17T13:24:22.308Z,6840
2019-01-17T13:24:52.356Z,7000
2019-01-17T13:25:22.371Z,7127
2019-01-17T13:25:52.387Z,7157
2019-01-17T13:26:22.435Z,7057
2019-01-17T13:26:52.452Z,6873
2019-01-17T13:27:22.538Z,6633
2019-01-17T13:27:52.467Z,6377
2019-01-17T13:28:22.506Z,6120
2019-01-17T13:28:52.531Z,5863
2019-01-17T13:29:22.600Z,5590
2019-01-17T13:29:52.585Z,5323
2019-01-17T13:30:22.635Z,5103